Terminal Aerodrome Forecast
Issued by NWS Twin Cities, MN

Home | Current Version | Previous Version | Graphics & Text | Print | Product List | Glossary On
Versions: 1 2 3 4 5 6 7 8 9 10 11 12 13 14 15 16 17
000
FTUS43 KMPX 062208 AAA
TAFEAU
TAF AMD
KEAU 062208Z 0622/0718 34010KT 4SM HZ BKN015
     FM070400 35005KT P6SM SCT025
     FM070900 35004KT 5SM BR SKC
     FM071400 36008KT P6SM FEW040=

USA.gov is the U.S. government's official web portal to all federal, state and local government web resources and services.